Time;durP1;ratioP1;P1;durP2;ratioP2;P2;SDS_P1;SDS_P2;PMS_P1;PMS_P2;Temp;Humidity;BMP_temperature;BMP_pressure;BME280_temperature;BME280_humidity;BME280_pressure;Samples;Min_cycle;Max_cycle;Signal;HPM_P1;HPM_P2
2022/11/27 00:01:04;;;;;;;;;;;;;;;;;;6078512;23;19912;-95
2022/11/27 00:03:32;;;;;;;;;;;;;;;;;;6084313;23;19956;-96
2022/11/27 00:05:58;;;;;;;;;;;;;;;;;;6080416;23;19912;-96
2022/11/27 00:08:25;;;;;;;;;;;;;;;;;;6078213;23;19913;-96
2022/11/27 00:10:50;;;;;;;;;;;;;;;;;;6078294;23;19913;-96
2022/11/27 00:13:16;;;;;;;;;;;;;;;;;;6077660;23;19940;-96
2022/11/27 00:15:42;;;;;;;;;;;;;;;;;;6077539;23;20333;-96
2022/11/27 00:18:08;;;;;;;;;;;;;;;;;;6075666;23;20243;-96
2022/11/27 00:20:34;;;;;;;;;;;;;;;;;;6071749;23;20335;-94
2022/11/27 00:23:01;;;;;;;;;;;;;;;;;;6071612;23;19920;-96
2022/11/27 00:25:34;;;;;;;;;;;;;;;;;;6073685;23;19949;-96
2022/11/27 00:28:00;;;;;;;;;;;;;;;;;;6073955;23;19913;-96
2022/11/27 00:30:26;;;;;;;;;;;;;;;;;;6073798;23;19921;-96
2022/11/27 00:32:54;;;;;;;;;;;;;;;;;;6074940;23;20336;-96
2022/11/27 00:35:20;;;;;;;;;;;;;;;;;;6074230;23;19944;-96
2022/11/27 00:37:46;;;;;;;;;;;;;;;;;;6074633;23;19914;-96
2022/11/27 00:40:12;;;;;;;;;;;;;;;;;;6075030;23;20259;-96
2022/11/27 00:42:38;;;;;;;;;;;;;;;;;;6075569;23;19949;-96
2022/11/27 00:45:07;;;;;;;;;;;;;;;;;;6076475;23;19913;-96
2022/11/27 00:47:33;;;;;;;;;;;;;;;;;;6077160;23;20300;-96
2022/11/27 00:49:59;;;;;;;;;;;;;;;;;;6076270;23;20410;-96
2022/11/27 00:52:25;;;;;;;;;;;;;;;;;;6074505;23;20324;-96
2022/11/27 00:54:51;;;;;;;;;;;;;;;;;;6076891;23;19913;-96
2022/11/27 00:57:17;;;;;;;;;;;;;;;;;;6077172;23;19913;-96
2022/11/27 00:59:43;;;;;;;;;;;;;;;;;;6083909;23;19952;-96
2022/11/27 01:02:10;;;;;;;;;;;;;;;;;;6081586;23;19917;-96
2022/11/27 01:04:37;;;;;;;;;;;;;;;;;;6086323;23;19917;-96
2022/11/27 01:07:07;;;;;;;;;;;;;;;;;;6108815;23;19984;-96
2022/11/27 01:09:33;;;;;;;;;;;;;;;;;;6083006;23;20228;-96
2022/11/27 01:12:00;;;;;;;;;;;;;;;;;;6084327;23;19984;-96
2022/11/27 01:14:26;;;;;;;;;;;;;;;;;;6084675;23;19914;-96
2022/11/27 01:16:52;;;;;;;;;;;;;;;;;;6082066;23;19920;-96
2022/11/27 01:19:18;;;;;;;;;;;;;;;;;;6094366;23;19913;-96
2022/11/27 01:21:44;;;;;;;;;;;;;;;;;;6104286;23;19920;-96
2022/11/27 01:24:10;;;;;;;;;;;;;;;;;;6102306;23;20350;-96
2022/11/27 01:26:36;;;;;;;;;;;;;;;;;;6110935;23;19913;-96
2022/11/27 01:29:05;;;;;;;;;;;;;;;;;;6133677;23;19917;-96
2022/11/27 01:31:31;;;;;;;;;;;;;;;;;;6108801;23;19961;-96
2022/11/27 01:33:57;;;;;;;;;;;;;;;;;;6105314;23;19917;-96
2022/11/27 01:36:25;;;;;;;;;;;;;;;;;;6112122;23;19904;-96
2022/11/27 01:38:51;;;;;;;;;;;;;;;;;;6109329;23;19937;-96
2022/11/27 01:41:18;;;;;;;;;;;;;;;;;;6109676;23;20391;-96
2022/11/27 01:43:46;;;;;;;;;;;;;;;;;;6116674;23;19957;-96
2022/11/27 01:46:16;;;;;;;;;;;;;;;;;;6142940;23;19913;-96
2022/11/27 01:48:42;;;;;;;;;;;;;;;;;;6096252;23;19905;-95
2022/11/27 01:51:17;;;;;;;;;;;;;;;;;;6134295;23;19913;-96
2022/11/27 01:53:43;;;;;;;;;;;;;;;;;;6103457;23;19996;-96
2022/11/27 01:56:14;;;;;;;;;;;;;;;;;;6108036;23;19923;-96
2022/11/27 01:58:40;;;;;;;;;;;;;;;;;;6107637;23;19919;-96
2022/11/27 02:01:06;;;;;;;;;;;;;;;;;;6106609;23;19925;-96
2022/11/27 02:03:32;;;;;;;;;;;;;;;;;;6112911;23;19985;-95
2022/11/27 02:05:58;;;;;;;;;;;;;;;;;;6118368;23;20106;-96
2022/11/27 02:08:38;;;;;;;;;;;;;;;;;;6119322;23;19941;-94
2022/11/27 02:14:11;;;;;;;;;;;;;;;;;;6129124;23;19908;-95
2022/11/27 02:16:55;;;;;;;;;;;;;;;;;;6122243;23;19901;-94
2022/11/27 02:19:39;;;;;;;;;;;;;;;;;;6104543;23;19901;-96
2022/11/27 04:01:05;;;;;;;;;;;;;;;;;;6162410;23;19920;-95
2022/11/27 04:03:35;;;;;;;;;;;;;;;;;;6141292;23;19923;-96
2022/11/27 04:06:01;;;;;;;;;;;;;;;;;;6118167;23;19912;-96
2022/11/27 04:08:28;;;;;;;;;;;;;;;;;;6112388;23;19917;-96
2022/11/27 04:10:54;;;;;;;;;;;;;;;;;;6114417;23;19920;-96
2022/11/27 04:13:20;;;;;;;;;;;;;;;;;;6113995;23;19912;-96
2022/11/27 04:15:50;;;;;;;;;;;;;;;;;;6137099;23;19923;-96
2022/11/27 04:18:16;;;;;;;;;;;;;;;;;;6112914;23;19912;-96
2022/11/27 04:20:42;;;;;;;;;;;;;;;;;;6113417;23;20389;-96
2022/11/27 04:23:09;;;;;;;;;;;;;;;;;;6109736;23;19916;-96
2022/11/27 04:25:38;;;;;;;;;;;;;;;;;;6133087;23;19947;-96
2022/11/27 04:28:04;;;;;;;;;;;;;;;;;;6110601;23;19914;-96
2022/11/27 04:30:30;;;;;;;;;;;;;;;;;;6109854;23;19980;-96
2022/11/27 04:32:56;;;;;;;;;;;;;;;;;;6112777;23;19944;-96
2022/11/27 04:35:26;;;;;;;;;;;;;;;;;;6122600;23;19940;-96
2022/11/27 04:37:54;;;;;;;;;;;;;;;;;;6121212;23;20286;-96
2022/11/27 04:40:20;;;;;;;;;;;;;;;;;;6119569;23;19940;-96
2022/11/27 04:42:46;;;;;;;;;;;;;;;;;;6121945;23;19936;-96
2022/11/27 04:45:13;;;;;;;;;;;;;;;;;;6119993;23;19920;-96
2022/11/27 04:47:39;;;;;;;;;;;;;;;;;;6119413;23;19936;-95
2022/11/27 04:50:05;;;;;;;;;;;;;;;;;;6118420;23;19913;-96
2022/11/27 04:52:32;;;;;;;;;;;;;;;;;;6118835;23;20331;-96
2022/11/27 04:54:58;;;;;;;;;;;;;;;;;;6120570;23;19921;-96
2022/11/27 04:57:25;;;;;;;;;;;;;;;;;;6117529;23;19919;-96
2022/11/27 04:59:51;;;;;;;;;;;;;;;;;;6117063;23;19913;-96
2022/11/27 05:02:18;;;;;;;;;;;;;;;;;;6123357;23;19912;-96
2022/11/27 05:04:50;;;;;;;;;;;;;;;;;;6126705;23;19913;-96
2022/11/27 05:07:17;;;;;;;;;;;;;;;;;;6128487;23;19988;-96
2022/11/27 05:09:50;;;;;;;;;;;;;;;;;;6126656;23;19940;-94
2022/11/27 05:22:39;;;;;;;;;;;;;;;;;;6149208;23;19916;-96
2022/11/27 05:25:13;;;;;;;;;;;;;;;;;;6152958;23;19912;-96
2022/11/27 05:27:40;;;;;;;;;;;;;;;;;;6149587;23;19912;-96
2022/11/27 05:30:07;;;;;;;;;;;;;;;;;;6177108;23;20011;-96
2022/11/27 05:32:47;;;;;;;;;;;;;;;;;;6181853;23;20245;-95
2022/11/27 05:35:28;;;;;;;;;;;;;;;;;;6200790;23;19982;-96
2022/11/27 05:37:58;;;;;;;;;;;;;;;;;;6155794;23;20001;-96
2022/11/27 05:40:39;;;;;;;;;;;;;;;;;;6177065;23;19919;-96
2022/11/27 05:43:06;;;;;;;;;;;;;;;;;;6168735;23;19942;-96
2022/11/27 05:45:32;;;;;;;;;;;;;;;;;;6143559;23;19916;-96
2022/11/27 05:47:58;;;;;;;;;;;;;;;;;;6145438;23;19912;-96
2022/11/27 05:50:25;;;;;;;;;;;;;;;;;;6143188;23;19987;-95
2022/11/27 05:52:52;;;;;;;;;;;;;;;;;;6173163;23;20368;-96
2022/11/27 05:55:35;;;;;;;;;;;;;;;;;;6190808;23;19916;-96
2022/11/27 05:58:01;;;;;;;;;;;;;;;;;;6142224;23;19919;-96
2022/11/27 06:00:27;;;;;;;;;;;;;;;;;;6140817;23;19916;-96
2022/11/27 06:02:53;;;;;;;;;;;;;;;;;;6140485;23;19912;-96
2022/11/27 06:05:19;;;;;;;;;;;;;;;;;;6162943;23;19916;-96
2022/11/27 06:07:48;;;;;;;;;;;;;;;;;;6172470;23;19919;-96
2022/11/27 06:10:32;;;;;;;;;;;;;;;;;;6169391;23;19932;-96
2022/11/27 06:12:58;;;;;;;;;;;;;;;;;;6171016;23;19928;-96
2022/11/27 06:15:24;;;;;;;;;;;;;;;;;;6138807;23;19919;-96
2022/11/27 06:17:50;;;;;;;;;;;;;;;;;;6142210;23;19912;-96
2022/11/27 06:20:16;;;;;;;;;;;;;;;;;;6138378;23;20318;-96
2022/11/27 06:23:00;;;;;;;;;;;;;;;;;;6156392;23;19939;-95
2022/11/27 06:25:30;;;;;;;;;;;;;;;;;;6159410;23;19940;-94
2022/11/27 06:28:00;;;;;;;;;;;;;;;;;;6184056;23;19914;-96
2022/11/27 06:31:04;;;;;;;;;;;;;;;;;;6204893;23;19919;-96
2022/11/27 06:33:31;;;;;;;;;;;;;;;;;;6173921;23;20291;-96
2022/11/27 06:35:57;;;;;;;;;;;;;;;;;;6147393;23;19916;-96
2022/11/27 06:38:28;;;;;;;;;;;;;;;;;;6146703;23;19916;-95
2022/11/27 06:40:55;;;;;;;;;;;;;;;;;;6151153;23;20317;-95
2022/11/27 06:43:25;;;;;;;;;;;;;;;;;;6171693;23;19917;-96
2022/11/27 06:45:51;;;;;;;;;;;;;;;;;;6143879;23;19919;-95
2022/11/27 06:48:17;;;;;;;;;;;;;;;;;;6138347;23;20334;-96
2022/11/27 06:50:43;;;;;;;;;;;;;;;;;;6146872;23;19912;-96
2022/11/27 06:53:09;;;;;;;;;;;;;;;;;;6139840;23;19959;-96
2022/11/27 06:55:38;;;;;;;;;;;;;;;;;;6141675;23;19939;-96
2022/11/27 06:58:14;;;;;;;;;;;;;;;;;;6138852;23;19919;-96
2022/11/27 07:00:40;;;;;;;;;;;;;;;;;;6142075;23;19912;-96
2022/11/27 07:03:06;;;;;;;;;;;;;;;;;;6140717;23;20290;-96
2022/11/27 07:05:32;;;;;;;;;;;;;;;;;;6141020;23;19916;-95
2022/11/27 07:07:57;;;;;;;;;;;;;;;;;;6141899;23;19919;-96
2022/11/27 07:10:26;;;;;;;;;;;;;;;;;;6145137;23;19932;-96
2022/11/27 07:12:52;;;;;;;;;;;;;;;;;;6141452;23;19915;-95
2022/11/27 07:15:18;;;;;;;;;;;;;;;;;;6142554;23;20301;-96
2022/11/27 07:17:44;;;;;;;;;;;;;;;;;;6144787;23;19935;-96
2022/11/27 07:20:10;;;;;;;;;;;;;;;;;;6147240;23;20325;-96
2022/11/27 07:22:38;;;;;;;;;;;;;;;;;;6148419;23;19913;-96
2022/11/27 07:25:04;;;;;;;;;;;;;;;;;;6147914;23;19938;-96
2022/11/27 07:27:30;;;;;;;;;;;;;;;;;;6149230;23;19912;-96
2022/11/27 07:30:08;;;;;;;;;;;;;;;;;;6150004;23;19912;-96
2022/11/27 07:32:34;;;;;;;;;;;;;;;;;;6153062;23;19939;-96
2022/11/27 07:35:00;;;;;;;;;;;;;;;;;;6144210;23;19923;-96
2022/11/27 07:37:26;;;;;;;;;;;;;;;;;;6141364;23;19936;-96
2022/11/27 07:39:54;;;;;;;;;;;;;;;;;;6146439;23;20334;-96
2022/11/27 07:42:24;;;;;;;;;;;;;;;;;;6171794;23;19919;-96
2022/11/27 07:44:51;;;;;;;;;;;;;;;;;;6149966;23;19922;-96
2022/11/27 07:47:18;;;;;;;;;;;;;;;;;;6173195;23;19912;-95
2022/11/27 07:49:44;;;;;;;;;;;;;;;;;;6145692;23;19912;-96
2022/11/27 07:52:10;;;;;;;;;;;;;;;;;;6148096;23;20333;-96
2022/11/27 07:54:38;;;;;;;;;;;;;;;;;;6175864;23;19915;-95
2022/11/27 07:57:04;;;;;;;;;;;;;;;;;;6144435;23;19935;-96
2022/11/27 07:59:30;;;;;;;;;;;;;;;;;;6148511;23;19951;-96
2022/11/27 08:01:56;;;;;;;;;;;;;;;;;;6151329;23;19911;-96
2022/11/27 08:04:26;;;;;;;;;;;;;;;;;;6172662;23;19960;-96
2022/11/27 08:06:52;;;;;;;;;;;;;;;;;;6151838;23;19916;-96
2022/11/27 08:09:19;;;;;;;;;;;;;;;;;;6149339;23;19935;-96
2022/11/27 08:11:45;;;;;;;;;;;;;;;;;;6147523;23;19994;-96
2022/11/27 08:14:12;;;;;;;;;;;;;;;;;;6149500;23;19922;-95
2022/11/27 08:16:44;;;;;;;;;;;;;;;;;;6174512;23;19923;-95
2022/11/27 08:19:10;;;;;;;;;;;;;;;;;;6143542;23;20273;-96
2022/11/27 08:21:47;;;;;;;;;;;;;;;;;;6180295;23;19927;-94
2022/11/27 08:24:38;;;;;;;;;;;;;;;;;;6193329;23;19931;-94
2022/11/27 08:27:22;;;;;;;;;;;;;;;;;;6185259;23;19934;-96
2022/11/27 08:29:48;;;;;;;;;;;;;;;;;;6150880;23;19923;-96
2022/11/27 08:32:14;;;;;;;;;;;;;;;;;;6143340;23;19912;-96
2022/11/27 08:34:40;;;;;;;;;;;;;;;;;;6149512;23;19900;-96
2022/11/27 08:37:06;;;;;;;;;;;;;;;;;;6148075;23;19919;-96
2022/11/27 08:39:33;;;;;;;;;;;;;;;;;;6172138;23;19919;-96
2022/11/27 08:41:59;;;;;;;;;;;;;;;;;;6142457;23;19912;-95
2022/11/27 08:44:25;;;;;;;;;;;;;;;;;;6145858;23;19912;-95
2022/11/27 08:46:52;;;;;;;;;;;;;;;;;;6144363;23;20293;-96
2022/11/27 08:49:18;;;;;;;;;;;;;;;;;;6139498;23;19919;-96
2022/11/27 08:51:44;;;;;;;;;;;;;;;;;;6139002;23;19944;-96
2022/11/27 08:54:10;;;;;;;;;;;;;;;;;;6138297;23;19919;-96
2022/11/27 08:56:36;;;;;;;;;;;;;;;;;;6141155;23;19955;-96
2022/11/27 08:59:02;;;;;;;;;;;;;;;;;;6138233;23;19916;-95
2022/11/27 09:01:28;;;;;;;;;;;;;;;;;;6136845;23;20323;-95
2022/11/27 09:03:55;;;;;;;;;;;;;;;;;;6148986;23;19959;-94
2022/11/27 09:06:24;;;;;;;;;;;;;;;;;;6171482;23;19912;-95
2022/11/27 09:08:56;;;;;;;;;;;;;;;;;;6146971;23;19912;-96
2022/11/27 09:11:23;;;;;;;;;;;;;;;;;;6163083;23;19922;-95
2022/11/27 09:13:50;;;;;;;;;;;;;;;;;;6155870;23;19916;-96
2022/11/27 09:16:20;;;;;;;;;;;;;;;;;;6207914;23;19916;-94
2022/11/27 09:29:28;;;;;;;;;;;;;;;;;;6170524;23;19917;-96
2022/11/27 09:31:58;;;;;;;;;;;;;;;;;;6170424;23;19912;-96
2022/11/27 09:34:25;;;;;;;;;;;;;;;;;;6124123;23;19917;-96
2022/11/27 09:36:54;;;;;;;;;;;;;;;;;;6150355;23;19936;-96
2022/11/27 09:39:25;;;;;;;;;;;;;;;;;;6145467;23;19917;-96
2022/11/27 09:42:05;;;;;;;;;;;;;;;;;;6155783;23;19911;-95
2022/11/27 09:54:59;;;;;;;;;;;;;;;;;;6145770;23;19971;-96
2022/11/27 09:57:46;;;;;;;;;;;;;;;;;;6148807;23;19901;-96
2022/11/27 10:16:25;;;;;;;;;;;;;;;;;;6188381;23;19916;-96
2022/11/27 10:19:09;;;;;;;;;;;;;;;;;;6178689;23;19958;-93
2022/11/27 10:21:47;;;;;;;;;;;;;;;;;;6161215;23;19923;-95
2022/11/27 10:24:13;;;;;;;;;;;;;;;;;;6143863;23;19951;-96
2022/11/27 10:26:47;;;;;;;;;;;;;;;;;;6151093;23;19936;-96
2022/11/27 10:39:40;;;;;;;;;;;;;;;;;;6170303;23;19917;-96
2022/11/27 10:42:09;;;;;;;;;;;;;;;;;;6126183;23;19940;-96
2022/11/27 11:28:47;;;;;;;;;;;;;;;;;;6135908;23;19924;-96
2022/11/27 11:36:44;;;;;;;;;;;;;;;;;;6136727;23;19911;-96
2022/11/27 11:39:19;;;;;;;;;;;;;;;;;;6126228;23;19924;-93
2022/11/27 12:05:22;;;;;;;;;;;;;;;;;;6139237;23;19940;-96
2022/11/27 12:07:48;;;;;;;;;;;;;;;;;;6120232;23;19917;-94
2022/11/27 12:10:26;;;;;;;;;;;;;;;;;;6139632;23;19916;-94
2022/11/27 12:12:53;;;;;;;;;;;;;;;;;;6122140;23;20284;-96
2022/11/27 12:15:25;;;;;;;;;;;;;;;;;;6145690;23;19940;-96
2022/11/27 13:52:25;;;;;;;;;;;;;;;;;;6155738;23;19923;-96
2022/11/27 13:54:52;;;;;;;;;;;;;;;;;;6175867;23;19923;-96
2022/11/27 13:57:20;;;;;;;;;;;;;;;;;;6150128;23;19912;-96
2022/11/27 14:00:03;;;;;;;;;;;;;;;;;;6152531;23;19913;-96
2022/11/27 14:02:58;;;;;;;;;;;;;;;;;;6179125;23;19895;-95
2022/11/27 14:06:03;;;;;;;;;;;;;;;;;;6181360;23;19915;-96
2022/11/27 14:47:44;;;;;;;;;;;;;;;;;;6179809;23;19915;-95
2022/11/27 14:50:20;;;;;;;;;;;;;;;;;;6156849;23;19917;-96
2022/11/27 14:52:57;;;;;;;;;;;;;;;;;;6155323;23;19904;-94
2022/11/27 14:55:49;;;;;;;;;;;;;;;;;;6156275;23;19917;-96
2022/11/27 14:58:38;;;;;;;;;;;;;;;;;;6153469;23;19912;-96
2022/11/27 17:09:14;;;;;;;;;;;;;;;;;;6171593;23;19931;-95
2022/11/27 17:11:40;;;;;;;;;;;;;;;;;;6117732;23;19912;-96
2022/11/27 17:14:06;;;;;;;;;;;;;;;;;;6121934;23;19920;-96
2022/11/27 17:16:32;;;;;;;;;;;;;;;;;;6120625;23;20250;-96
2022/11/27 17:18:59;;;;;;;;;;;;;;;;;;6119290;23;19912;-95
2022/11/27 17:21:25;;;;;;;;;;;;;;;;;;6120175;23;19943;-96
2022/11/27 17:23:51;;;;;;;;;;;;;;;;;;6122080;23;19912;-96
2022/11/27 17:26:18;;;;;;;;;;;;;;;;;;6126910;23;19912;-96
2022/11/27 17:28:48;;;;;;;;;;;;;;;;;;6114432;23;19957;-96
2022/11/27 17:31:14;;;;;;;;;;;;;;;;;;6138347;23;19913;-96
2022/11/27 17:33:40;;;;;;;;;;;;;;;;;;6108681;23;20330;-95
2022/11/27 17:36:06;;;;;;;;;;;;;;;;;;6107290;23;19941;-95
2022/11/27 17:38:32;;;;;;;;;;;;;;;;;;6106937;23;19995;-95
2022/11/27 17:40:58;;;;;;;;;;;;;;;;;;6113616;23;19935;-96
2022/11/27 17:43:26;;;;;;;;;;;;;;;;;;6137681;23;19912;-96
2022/11/27 17:46:11;;;;;;;;;;;;;;;;;;6153613;23;19935;-95
2022/11/27 17:48:37;;;;;;;;;;;;;;;;;;6124407;23;20335;-95
2022/11/27 18:04:04;;;;;;;;;;;;;;;;;;6139737;23;19908;-94
2022/11/27 18:06:41;;;;;;;;;;;;;;;;;;6155228;23;19940;-94
2022/11/27 18:09:18;;;;;;;;;;;;;;;;;;6152922;23;19920;-95
2022/11/27 18:17:07;;;;;;;;;;;;;;;;;;6150555;23;20369;-93
2022/11/27 18:19:33;;;;;;;;;;;;;;;;;;6105146;23;19916;-94
2022/11/27 18:21:59;;;;;;;;;;;;;;;;;;6105210;23;19917;-94
2022/11/27 18:24:25;;;;;;;;;;;;;;;;;;6105470;23;20385;-93
2022/11/27 18:27:01;;;;;;;;;;;;;;;;;;6118599;23;19927;-96
2022/11/27 21:14:54;;;;;;;;;;;;;;;;;;6107074;23;19924;-96
2022/11/27 21:20:24;;;;;;;;;;;;;;;;;;6119379;23;19912;-94
2022/11/27 21:22:53;;;;;;;;;;;;;;;;;;6085613;23;19913;-96
2022/11/27 21:28:10;;;;;;;;;;;;;;;;;;6103786;23;19921;-95
2022/11/27 21:30:36;;;;;;;;;;;;;;;;;;6075551;23;19919;-94
2022/11/27 21:33:02;;;;;;;;;;;;;;;;;;6073485;23;20394;-95
2022/11/27 21:35:28;;;;;;;;;;;;;;;;;;6073374;23;19920;-95
2022/11/27 21:37:54;;;;;;;;;;;;;;;;;;6073910;23;19913;-95
2022/11/27 21:40:29;;;;;;;;;;;;;;;;;;6073540;23;19928;-95
2022/11/27 21:42:55;;;;;;;;;;;;;;;;;;6074538;23;19920;-96
2022/11/27 21:45:21;;;;;;;;;;;;;;;;;;6074003;23;19917;-95
2022/11/27 21:47:47;;;;;;;;;;;;;;;;;;6073335;23;19936;-96
2022/11/27 21:50:13;;;;;;;;;;;;;;;;;;6074700;23;19917;-95
2022/11/27 21:52:42;;;;;;;;;;;;;;;;;;6074880;23;19937;-95
2022/11/27 21:55:08;;;;;;;;;;;;;;;;;;6074242;23;19917;-95
2022/11/27 21:57:49;;;;;;;;;;;;;;;;;;6074147;23;19913;-95
2022/11/27 22:00:21;;;;;;;;;;;;;;;;;;6074029;23;19924;-96
2022/11/27 22:02:47;;;;;;;;;;;;;;;;;;6073119;23;19913;-94
2022/11/27 22:05:14;;;;;;;;;;;;;;;;;;6071773;23;19965;-95
2022/11/27 22:07:40;;;;;;;;;;;;;;;;;;6072869;23;19967;-96
2022/11/27 22:10:16;;;;;;;;;;;;;;;;;;6071113;23;19913;-96
2022/11/27 22:12:42;;;;;;;;;;;;;;;;;;6072701;23;19917;-96
2022/11/27 22:15:11;;;;;;;;;;;;;;;;;;6072584;23;19920;-95
2022/11/27 22:17:37;;;;;;;;;;;;;;;;;;6073373;23;20322;-95
2022/11/27 22:20:03;;;;;;;;;;;;;;;;;;6072169;23;19924;-96
2022/11/27 22:22:31;;;;;;;;;;;;;;;;;;6072795;23;20294;-96
2022/11/27 22:24:57;;;;;;;;;;;;;;;;;;6072650;23;19916;-95
2022/11/27 22:27:23;;;;;;;;;;;;;;;;;;6072431;23;19913;-95
2022/11/27 22:29:49;;;;;;;;;;;;;;;;;;6071950;23;19913;-94
2022/11/27 22:32:35;;;;;;;;;;;;;;;;;;;;;
2022/11/27 22:35:10;;;;;;;;;;;;;;;;;;6096623;23;19917;-94
2022/11/27 22:37:36;;;;;;;;;;;;;;;;;;6072618;23;19913;-94
2022/11/27 22:40:08;;;;;;;;;;;;;;;;;;6072332;23;19917;-95
2022/11/27 22:42:34;;;;;;;;;;;;;;;;;;6073052;23;19988;-94
2022/11/27 22:45:03;;;;;;;;;;;;;;;;;;6072507;23;19937;-94
2022/11/27 22:47:29;;;;;;;;;;;;;;;;;;6072032;23;19913;-94
2022/11/27 22:49:55;;;;;;;;;;;;;;;;;;6072153;23;19921;-95
2022/11/27 22:52:25;;;;;;;;;;;;;;;;;;6072612;23;19913;-93
2022/11/27 22:54:51;;;;;;;;;;;;;;;;;;6072269;23;19917;-94
2022/11/27 22:57:17;;;;;;;;;;;;;;;;;;6072450;23;20351;-94
2022/11/27 22:59:43;;;;;;;;;;;;;;;;;;6072433;23;19964;-94
2022/11/27 23:02:09;;;;;;;;;;;;;;;;;;6073291;23;19913;-94
2022/11/27 23:04:35;;;;;;;;;;;;;;;;;;6074219;23;19945;-95
2022/11/27 23:07:19;;;;;;;;;;;;;;;;;;6073914;23;19913;-94
2022/11/27 23:09:50;;;;;;;;;;;;;;;;;;6071460;23;20274;-94
2022/11/27 23:12:16;;;;;;;;;;;;;;;;;;6073100;23;19984;-95
2022/11/27 23:14:42;;;;;;;;;;;;;;;;;;6073915;23;20327;-95
2022/11/27 23:17:08;;;;;;;;;;;;;;;;;;6074175;23;20357;-93
2022/11/27 23:19:44;;;;;;;;;;;;;;;;;;6073538;23;19927;-95
2022/11/27 23:22:10;;;;;;;;;;;;;;;;;;6074453;23;19920;-96
2022/11/27 23:24:36;;;;;;;;;;;;;;;;;;6075365;23;19913;-96
2022/11/27 23:27:02;;;;;;;;;;;;;;;;;;6073548;23;19917;-96
2022/11/27 23:29:28;;;;;;;;;;;;;;;;;;6073359;23;19924;-96
2022/11/27 23:31:54;;;;;;;;;;;;;;;;;;6073162;23;20242;-94
2022/11/27 23:34:20;;;;;;;;;;;;;;;;;;6073275;23;19917;-94
2022/11/27 23:36:46;;;;;;;;;;;;;;;;;;6073908;23;20002;-93
2022/11/27 23:39:12;;;;;;;;;;;;;;;;;;6097235;23;19917;-93
2022/11/27 23:41:39;;;;;;;;;;;;;;;;;;6073704;23;19928;-93
2022/11/27 23:44:05;;;;;;;;;;;;;;;;;;6073659;23;19984;-96
2022/11/27 23:46:31;;;;;;;;;;;;;;;;;;6073396;23;19948;-94
2022/11/27 23:48:57;;;;;;;;;;;;;;;;;;6073315;23;19913;-96
2022/11/27 23:51:23;;;;;;;;;;;;;;;;;;6073665;23;20335;-94
2022/11/27 23:53:49;;;;;;;;;;;;;;;;;;6073516;23;19917;-94
2022/11/27 23:56:15;;;;;;;;;;;;;;;;;;6073510;23;19920;-96
2022/11/27 23:58:41;;;;;;;;;;;;;;;;;;6073454;23;19920;-95
